Estaire, Canada
Current Conditions -  °F | °C
As of 2:00 AM on Thursday 18 Dec 2014 (Local Time) from CYSB Reporting Station
Light Snow Light Snow  
Wind Chill:   Ceiling: 6100
Heat Index: 16°   Visibility: 6mi
Dew Point: 12°   Wind: 13mph
Humidity: 86%   Direction: 360°N
Pressure: 30.01"   Gusts: 20mph
Location:  46.3°N, 80.8°W
Report Text: CYSB 180700Z 36011G17KT 6SM -SN DRSN SCT041 OVC061 M09/M11 A3001 RMK SC3SC5 SLP186
Loading
Personal Weather Stations






























Interactive Weather Map New forecast layout! Learn more

10-Day Weather Forecast

Advertisements
Track Severe Weather on mobile